sensor_id;sensor_type;location;lat;lon;timestamp;P1;durP1;ratioP1;P2;durP2;ratioP2
7108;SDS011;29079;41.930;25.558;2022-09-13T00:01:36;6.55;;;5.95;;
7108;SDS011;29079;41.930;25.558;2022-09-13T00:04:07;7.43;;;6.25;;
7108;SDS011;29079;41.930;25.558;2022-09-13T00:06:37;7.93;;;6.47;;
7108;SDS011;29079;41.930;25.558;2022-09-13T00:09:07;6.65;;;6.15;;
7108;SDS011;29079;41.930;25.558;2022-09-13T00:11:37;6.28;;;5.78;;
7108;SDS011;29079;41.930;25.558;2022-09-13T00:14:07;5.93;;;5.43;;
7108;SDS011;29079;41.930;25.558;2022-09-13T00:16:37;7.93;;;5.82;;
7108;SDS011;29079;41.930;25.558;2022-09-13T00:19:09;6.68;;;5.68;;
7108;SDS011;29079;41.930;25.558;2022-09-13T00:21:39;6.75;;;6.15;;
7108;SDS011;29079;41.930;25.558;2022-09-13T00:24:09;6.18;;;5.57;;
7108;SDS011;29079;41.930;25.558;2022-09-13T00:26:38;7.40;;;6.45;;
7108;SDS011;29079;41.930;25.558;2022-09-13T00:29:08;6.50;;;5.90;;
7108;SDS011;29079;41.930;25.558;2022-09-13T00:31:38;6.90;;;5.60;;
7108;SDS011;29079;41.930;25.558;2022-09-13T00:34:10;10.02;;;5.47;;
7108;SDS011;29079;41.930;25.558;2022-09-13T00:36:39;6.53;;;5.82;;
7108;SDS011;29079;41.930;25.558;2022-09-13T00:39:09;6.25;;;5.65;;
7108;SDS011;29079;41.930;25.558;2022-09-13T00:41:39;9.25;;;5.72;;
7108;SDS011;29079;41.930;25.558;2022-09-13T00:47:29;6.85;;;6.28;;
7108;SDS011;29079;41.930;25.558;2022-09-13T00:50:06;6.20;;;5.70;;
7108;SDS011;29079;41.930;25.558;2022-09-13T00:52:42;6.53;;;6.03;;
7108;SDS011;29079;41.930;25.558;2022-09-13T00:55:17;6.28;;;5.68;;
7108;SDS011;29079;41.930;25.558;2022-09-13T00:57:50;7.63;;;6.22;;
7108;SDS011;29079;41.930;25.558;2022-09-13T01:00:21;9.05;;;6.25;;
7108;SDS011;29079;41.930;25.558;2022-09-13T01:02:51;6.95;;;6.45;;
7108;SDS011;29079;41.930;25.558;2022-09-13T01:05:27;6.35;;;5.78;;
7108;SDS011;29079;41.930;25.558;2022-09-13T01:08:01;8.05;;;5.63;;
7108;SDS011;29079;41.930;25.558;2022-09-13T01:10:37;9.30;;;6.00;;
7108;SDS011;29079;41.930;25.558;2022-09-13T01:13:09;6.28;;;5.78;;
7108;SDS011;29079;41.930;25.558;2022-09-13T01:15:43;5.75;;;5.15;;
7108;SDS011;29079;41.930;25.558;2022-09-13T01:18:13;8.15;;;7.40;;
7108;SDS011;29079;41.930;25.558;2022-09-13T01:20:49;7.45;;;6.75;;
7108;SDS011;29079;41.930;25.558;2022-09-13T01:23:46;7.18;;;6.30;;
7108;SDS011;29079;41.930;25.558;2022-09-13T01:26:41;7.43;;;6.18;;
7108;SDS011;29079;41.930;25.558;2022-09-13T01:29:29;8.65;;;5.85;;
7108;SDS011;29079;41.930;25.558;2022-09-13T01:32:17;6.20;;;5.60;;
7108;SDS011;29079;41.930;25.558;2022-09-13T01:34:59;6.72;;;5.68;;
7108;SDS011;29079;41.930;25.558;2022-09-13T01:37:42;5.57;;;5.03;;
7108;SDS011;29079;41.930;25.558;2022-09-13T01:40:23;6.43;;;5.82;;
7108;SDS011;29079;41.930;25.558;2022-09-13T01:43:18;6.15;;;5.55;;
7108;SDS011;29079;41.930;25.558;2022-09-13T01:45:58;5.85;;;5.28;;
7108;SDS011;29079;41.930;25.558;2022-09-13T01:48:39;6.20;;;5.60;;
7108;SDS011;29079;41.930;25.558;2022-09-13T01:51:22;6.95;;;6.25;;
7108;SDS011;29079;41.930;25.558;2022-09-13T01:54:02;6.18;;;5.57;;
7108;SDS011;29079;41.930;25.558;2022-09-13T01:56:42;6.03;;;5.43;;
7108;SDS011;29079;41.930;25.558;2022-09-13T01:59:23;5.55;;;5.05;;
7108;SDS011;29079;41.930;25.558;2022-09-13T02:02:04;5.72;;;5.13;;
7108;SDS011;29079;41.930;25.558;2022-09-13T02:04:42;5.25;;;4.75;;
7108;SDS011;29079;41.930;25.558;2022-09-13T02:07:16;5.00;;;4.55;;
7108;SDS011;29079;41.930;25.558;2022-09-13T02:09:53;8.65;;;5.32;;
7108;SDS011;29079;41.930;25.558;2022-09-13T02:12:28;5.30;;;4.90;;
7108;SDS011;29079;41.930;25.558;2022-09-13T02:15:02;6.20;;;5.68;;
7108;SDS011;29079;41.930;25.558;2022-09-13T02:17:37;5.00;;;4.28;;
7108;SDS011;29079;41.930;25.558;2022-09-13T02:20:17;5.35;;;4.82;;
7108;SDS011;29079;41.930;25.558;2022-09-13T02:22:53;4.85;;;4.32;;
7108;SDS011;29079;41.930;25.558;2022-09-13T02:25:26;5.38;;;4.85;;
7108;SDS011;29079;41.930;25.558;2022-09-13T02:28:00;5.40;;;4.70;;
7108;SDS011;29079;41.930;25.558;2022-09-13T02:30:36;5.28;;;4.78;;
7108;SDS011;29079;41.930;25.558;2022-09-13T02:33:11;8.48;;;5.32;;
7108;SDS011;29079;41.930;25.558;2022-09-13T02:35:47;5.25;;;4.85;;
7108;SDS011;29079;41.930;25.558;2022-09-13T02:38:23;5.60;;;5.13;;
7108;SDS011;29079;41.930;25.558;2022-09-13T02:40:58;6.50;;;5.28;;
7108;SDS011;29079;41.930;25.558;2022-09-13T02:43:31;13.82;;;5.05;;
7108;SDS011;29079;41.930;25.558;2022-09-13T02:46:09;5.80;;;4.47;;
7108;SDS011;29079;41.930;25.558;2022-09-13T02:48:49;5.77;;;5.23;;
7108;SDS011;29079;41.930;25.558;2022-09-13T02:51:30;13.25;;;4.80;;
7108;SDS011;29079;41.930;25.558;2022-09-13T02:54:09;6.13;;;4.82;;
7108;SDS011;29079;41.930;25.558;2022-09-13T02:56:50;6.78;;;4.78;;
7108;SDS011;29079;41.930;25.558;2022-09-13T02:59:24;6.45;;;4.97;;
7108;SDS011;29079;41.930;25.558;2022-09-13T03:01:56;5.85;;;5.28;;
7108;SDS011;29079;41.930;25.558;2022-09-13T03:04:30;5.43;;;4.38;;
7108;SDS011;29079;41.930;25.558;2022-09-13T03:07:05;5.43;;;5.03;;
7108;SDS011;29079;41.930;25.558;2022-09-13T03:09:38;5.88;;;5.30;;
7108;SDS011;29079;41.930;25.558;2022-09-13T03:12:28;6.28;;;5.57;;
7108;SDS011;29079;41.930;25.558;2022-09-13T03:15:11;5.70;;;5.13;;
7108;SDS011;29079;41.930;25.558;2022-09-13T03:17:52;10.02;;;4.97;;
7108;SDS011;29079;41.930;25.558;2022-09-13T03:20:31;5.82;;;4.72;;
7108;SDS011;29079;41.930;25.558;2022-09-13T03:23:15;5.72;;;4.65;;
7108;SDS011;29079;41.930;25.558;2022-09-13T03:26:16;5.70;;;5.20;;
7108;SDS011;29079;41.930;25.558;2022-09-13T03:29:01;5.47;;;4.97;;
7108;SDS011;29079;41.930;25.558;2022-09-13T03:31:53;5.57;;;5.07;;
7108;SDS011;29079;41.930;25.558;2022-09-13T03:34:36;7.43;;;4.55;;
7108;SDS011;29079;41.930;25.558;2022-09-13T03:37:16;6.32;;;5.22;;
7108;SDS011;29079;41.930;25.558;2022-09-13T03:39:55;5.47;;;5.07;;
7108;SDS011;29079;41.930;25.558;2022-09-13T03:42:31;6.05;;;5.38;;
7108;SDS011;29079;41.930;25.558;2022-09-13T03:45:06;7.15;;;5.07;;
7108;SDS011;29079;41.930;25.558;2022-09-13T03:47:39;5.13;;;4.72;;
7108;SDS011;29079;41.930;25.558;2022-09-13T03:50:14;5.53;;;5.03;;
7108;SDS011;29079;41.930;25.558;2022-09-13T03:52:47;6.53;;;5.40;;
7108;SDS011;29079;41.930;25.558;2022-09-13T03:55:25;8.15;;;4.47;;
7108;SDS011;29079;41.930;25.558;2022-09-13T03:57:56;7.30;;;5.35;;
7108;SDS011;29079;41.930;25.558;2022-09-13T04:00:26;5.10;;;4.70;;
7108;SDS011;29079;41.930;25.558;2022-09-13T04:02:56;5.20;;;4.70;;
7108;SDS011;29079;41.930;25.558;2022-09-13T04:05:26;6.32;;;4.93;;
7108;SDS011;29079;41.930;25.558;2022-09-13T04:07:56;5.80;;;5.13;;
7108;SDS011;29079;41.930;25.558;2022-09-13T04:10:27;6.57;;;5.32;;
7108;SDS011;29079;41.930;25.558;2022-09-13T04:13:00;6.32;;;5.20;;
7108;SDS011;29079;41.930;25.558;2022-09-13T04:15:30;8.77;;;5.57;;
7108;SDS011;29079;41.930;25.558;2022-09-13T04:18:00;8.20;;;6.03;;
7108;SDS011;29079;41.930;25.558;2022-09-13T04:20:30;5.82;;;5.22;;
7108;SDS011;29079;41.930;25.558;2022-09-13T04:23:00;5.93;;;5.43;;
7108;SDS011;29079;41.930;25.558;2022-09-13T04:25:31;7.60;;;6.10;;
7108;SDS011;29079;41.930;25.558;2022-09-13T04:28:01;12.70;;;5.35;;
7108;SDS011;29079;41.930;25.558;2022-09-13T04:30:32;6.22;;;5.55;;
7108;SDS011;29079;41.930;25.558;2022-09-13T04:33:02;10.40;;;6.32;;
7108;SDS011;29079;41.930;25.558;2022-09-13T04:35:32;5.72;;;5.20;;
7108;SDS011;29079;41.930;25.558;2022-09-13T04:38:02;8.75;;;5.45;;
7108;SDS011;29079;41.930;25.558;2022-09-13T04:40:33;8.18;;;5.70;;
7108;SDS011;29079;41.930;25.558;2022-09-13T04:43:04;7.57;;;6.18;;
7108;SDS011;29079;41.930;25.558;2022-09-13T04:45:35;6.05;;;5.55;;
7108;SDS011;29079;41.930;25.558;2022-09-13T04:48:07;6.70;;;5.97;;
7108;SDS011;29079;41.930;25.558;2022-09-13T04:50:37;7.65;;;5.88;;
7108;SDS011;29079;41.930;25.558;2022-09-13T04:53:06;7.47;;;6.05;;
7108;SDS011;29079;41.930;25.558;2022-09-13T04:55:38;8.00;;;7.20;;
7108;SDS011;29079;41.930;25.558;2022-09-13T04:58:08;11.50;;;9.68;;
7108;SDS011;29079;41.930;25.558;2022-09-13T05:00:39;10.98;;;7.65;;
7108;SDS011;29079;41.930;25.558;2022-09-13T05:03:09;9.80;;;8.85;;
7108;SDS011;29079;41.930;25.558;2022-09-13T05:05:38;11.82;;;9.65;;
7108;SDS011;29079;41.930;25.558;2022-09-13T05:08:08;10.15;;;7.88;;
7108;SDS011;29079;41.930;25.558;2022-09-13T05:10:40;8.35;;;7.32;;
7108;SDS011;29079;41.930;25.558;2022-09-13T05:13:10;7.72;;;6.90;;
7108;SDS011;29079;41.930;25.558;2022-09-13T05:15:40;11.85;;;6.18;;
7108;SDS011;29079;41.930;25.558;2022-09-13T05:18:10;8.38;;;6.43;;
7108;SDS011;29079;41.930;25.558;2022-09-13T05:20:41;8.80;;;7.05;;
7108;SDS011;29079;41.930;25.558;2022-09-13T05:23:11;8.70;;;6.22;;
7108;SDS011;29079;41.930;25.558;2022-09-13T05:25:42;8.82;;;6.03;;
7108;SDS011;29079;41.930;25.558;2022-09-13T05:28:12;12.98;;;6.05;;
7108;SDS011;29079;41.930;25.558;2022-09-13T05:30:42;13.45;;;6.63;;
7108;SDS011;29079;41.930;25.558;2022-09-13T05:33:11;8.85;;;6.30;;
7108;SDS011;29079;41.930;25.558;2022-09-13T05:35:41;8.43;;;7.25;;
7108;SDS011;29079;41.930;25.558;2022-09-13T05:38:11;9.52;;;6.45;;
7108;SDS011;29079;41.930;25.558;2022-09-13T05:40:42;18.15;;;7.75;;
7108;SDS011;29079;41.930;25.558;2022-09-13T05:43:12;7.72;;;6.28;;
7108;SDS011;29079;41.930;25.558;2022-09-13T05:45:42;7.15;;;6.22;;
7108;SDS011;29079;41.930;25.558;2022-09-13T05:48:13;7.32;;;5.93;;
7108;SDS011;29079;41.930;25.558;2022-09-13T05:50:43;8.52;;;6.55;;
7108;SDS011;29079;41.930;25.558;2022-09-13T05:53:44;8.90;;;6.32;;
7108;SDS011;29079;41.930;25.558;2022-09-13T05:56:17;7.70;;;6.68;;
7108;SDS011;29079;41.930;25.558;2022-09-13T05:58:48;8.93;;;7.03;;
7108;SDS011;29079;41.930;25.558;2022-09-13T06:01:20;16.13;;;9.25;;
7108;SDS011;29079;41.930;25.558;2022-09-13T06:03:52;14.90;;;7.00;;
7108;SDS011;29079;41.930;25.558;2022-09-13T06:06:23;8.52;;;6.20;;
7108;SDS011;29079;41.930;25.558;2022-09-13T06:08:53;10.85;;;5.88;;
7108;SDS011;29079;41.930;25.558;2022-09-13T06:11:26;8.07;;;6.25;;
7108;SDS011;29079;41.930;25.558;2022-09-13T06:13:56;13.35;;;6.13;;
7108;SDS011;29079;41.930;25.558;2022-09-13T06:16:26;12.00;;;6.63;;
7108;SDS011;29079;41.930;25.558;2022-09-13T06:18:57;7.22;;;6.30;;
7108;SDS011;29079;41.930;25.558;2022-09-13T06:21:29;7.18;;;6.25;;
7108;SDS011;29079;41.930;25.558;2022-09-13T06:23:59;7.35;;;5.72;;
7108;SDS011;29079;41.930;25.558;2022-09-13T06:26:31;6.43;;;5.50;;
7108;SDS011;29079;41.930;25.558;2022-09-13T06:29:00;8.30;;;6.70;;
7108;SDS011;29079;41.930;25.558;2022-09-13T06:31:30;7.60;;;5.63;;
7108;SDS011;29079;41.930;25.558;2022-09-13T06:34:00;12.43;;;6.10;;
7108;SDS011;29079;41.930;25.558;2022-09-13T06:36:30;7.50;;;5.45;;
7108;SDS011;29079;41.930;25.558;2022-09-13T06:39:00;11.63;;;5.57;;
7108;SDS011;29079;41.930;25.558;2022-09-13T06:41:33;22.13;;;5.90;;
7108;SDS011;29079;41.930;25.558;2022-09-13T06:44:21;9.98;;;5.70;;
7108;SDS011;29079;41.930;25.558;2022-09-13T06:46:51;7.00;;;4.88;;
7108;SDS011;29079;41.930;25.558;2022-09-13T06:49:21;6.00;;;4.85;;
7108;SDS011;29079;41.930;25.558;2022-09-13T06:51:51;8.25;;;5.22;;
7108;SDS011;29079;41.930;25.558;2022-09-13T06:54:21;11.43;;;5.45;;
7108;SDS011;29079;41.930;25.558;2022-09-13T06:56:52;9.07;;;5.60;;
7108;SDS011;29079;41.930;25.558;2022-09-13T06:59:22;22.33;;;5.82;;
7108;SDS011;29079;41.930;25.558;2022-09-13T07:01:52;13.30;;;5.22;;
7108;SDS011;29079;41.930;25.558;2022-09-13T07:04:21;7.32;;;5.43;;
7108;SDS011;29079;41.930;25.558;2022-09-13T07:06:52;6.00;;;5.10;;
7108;SDS011;29079;41.930;25.558;2022-09-13T07:09:22;7.03;;;5.18;;
7108;SDS011;29079;41.930;25.558;2022-09-13T07:11:54;5.38;;;4.88;;
7108;SDS011;29079;41.930;25.558;2022-09-13T07:14:31;8.73;;;5.13;;
7108;SDS011;29079;41.930;25.558;2022-09-13T07:17:01;5.85;;;4.60;;
7108;SDS011;29079;41.930;25.558;2022-09-13T07:19:31;6.30;;;4.90;;
7108;SDS011;29079;41.930;25.558;2022-09-13T07:22:01;5.75;;;5.25;;
7108;SDS011;29079;41.930;25.558;2022-09-13T07:24:32;5.55;;;4.70;;
7108;SDS011;29079;41.930;25.558;2022-09-13T07:27:03;5.82;;;5.32;;
7108;SDS011;29079;41.930;25.558;2022-09-13T07:29:34;8.13;;;5.55;;
7108;SDS011;29079;41.930;25.558;2022-09-13T07:32:04;6.20;;;5.60;;
7108;SDS011;29079;41.930;25.558;2022-09-13T07:34:34;7.10;;;5.22;;
7108;SDS011;29079;41.930;25.558;2022-09-13T07:37:04;6.20;;;4.85;;
7108;SDS011;29079;41.930;25.558;2022-09-13T07:39:34;7.10;;;5.40;;
7108;SDS011;29079;41.930;25.558;2022-09-13T07:42:05;9.65;;;5.32;;
7108;SDS011;29079;41.930;25.558;2022-09-13T07:44:35;7.50;;;4.80;;
7108;SDS011;29079;41.930;25.558;2022-09-13T07:47:08;8.38;;;5.68;;
7108;SDS011;29079;41.930;25.558;2022-09-13T07:49:38;7.53;;;5.22;;
7108;SDS011;29079;41.930;25.558;2022-09-13T07:52:08;6.18;;;5.03;;
7108;SDS011;29079;41.930;25.558;2022-09-13T07:54:39;11.60;;;6.13;;
7108;SDS011;29079;41.930;25.558;2022-09-13T07:57:10;7.00;;;4.63;;
7108;SDS011;29079;41.930;25.558;2022-09-13T07:59:40;9.18;;;5.40;;
7108;SDS011;29079;41.930;25.558;2022-09-13T08:02:10;8.07;;;4.38;;
7108;SDS011;29079;41.930;25.558;2022-09-13T08:04:41;4.45;;;4.05;;
7108;SDS011;29079;41.930;25.558;2022-09-13T08:07:10;4.45;;;4.05;;
7108;SDS011;29079;41.930;25.558;2022-09-13T08:09:41;5.25;;;4.07;;
7108;SDS011;29079;41.930;25.558;2022-09-13T08:12:12;4.07;;;3.78;;
7108;SDS011;29079;41.930;25.558;2022-09-13T08:14:43;4.57;;;3.28;;
7108;SDS011;29079;41.930;25.558;2022-09-13T08:17:13;4.43;;;4.03;;
7108;SDS011;29079;41.930;25.558;2022-09-13T08:19:43;7.07;;;4.25;;
7108;SDS011;29079;41.930;25.558;2022-09-13T08:22:13;9.55;;;4.30;;
7108;SDS011;29079;41.930;25.558;2022-09-13T08:24:43;9.52;;;4.30;;
7108;SDS011;29079;41.930;25.558;2022-09-13T08:27:14;4.75;;;3.53;;
7108;SDS011;29079;41.930;25.558;2022-09-13T08:29:44;4.10;;;3.28;;
7108;SDS011;29079;41.930;25.558;2022-09-13T08:32:14;5.75;;;3.50;;
7108;SDS011;29079;41.930;25.558;2022-09-13T08:34:44;9.43;;;4.13;;
7108;SDS011;29079;41.930;25.558;2022-09-13T08:37:13;3.90;;;3.60;;
7108;SDS011;29079;41.930;25.558;2022-09-13T08:39:43;9.20;;;4.35;;
7108;SDS011;29079;41.930;25.558;2022-09-13T08:42:17;4.20;;;3.85;;
7108;SDS011;29079;41.930;25.558;2022-09-13T08:44:52;4.22;;;3.83;;
7108;SDS011;29079;41.930;25.558;2022-09-13T08:47:30;3.67;;;3.38;;
7108;SDS011;29079;41.930;25.558;2022-09-13T08:50:10;4.93;;;3.35;;
7108;SDS011;29079;41.930;25.558;2022-09-13T08:53:07;7.43;;;3.92;;
7108;SDS011;29079;41.930;25.558;2022-09-13T08:55:48;5.38;;;3.55;;
7108;SDS011;29079;41.930;25.558;2022-09-13T08:58:29;5.22;;;3.50;;
7108;SDS011;29079;41.930;25.558;2022-09-13T09:01:12;6.15;;;3.70;;
7108;SDS011;29079;41.930;25.558;2022-09-13T09:03:54;5.95;;;3.97;;
7108;SDS011;29079;41.930;25.558;2022-09-13T09:06:31;4.47;;;3.78;;
7108;SDS011;29079;41.930;25.558;2022-09-13T09:09:04;5.47;;;4.00;;
7108;SDS011;29079;41.930;25.558;2022-09-13T09:11:40;4.07;;;3.67;;
7108;SDS011;29079;41.930;25.558;2022-09-13T09:14:16;3.97;;;3.58;;
7108;SDS011;29079;41.930;25.558;2022-09-13T09:16:52;4.43;;;3.53;;
7108;SDS011;29079;41.930;25.558;2022-09-13T09:19:28;3.45;;;3.03;;
7108;SDS011;29079;41.930;25.558;2022-09-13T09:22:03;4.07;;;3.70;;
7108;SDS011;29079;41.930;25.558;2022-09-13T09:24:38;4.05;;;3.33;;
7108;SDS011;29079;41.930;25.558;2022-09-13T09:27:10;7.20;;;4.20;;
7108;SDS011;29079;41.930;25.558;2022-09-13T09:29:45;4.00;;;3.60;;
7108;SDS011;29079;41.930;25.558;2022-09-13T09:32:20;5.00;;;3.53;;
7108;SDS011;29079;41.930;25.558;2022-09-13T09:35:09;3.25;;;2.80;;
7108;SDS011;29079;41.930;25.558;2022-09-13T09:37:49;3.33;;;3.03;;
7108;SDS011;29079;41.930;25.558;2022-09-13T09:40:30;3.65;;;3.35;;
7108;SDS011;29079;41.930;25.558;2022-09-13T09:43:08;4.55;;;3.28;;
7108;SDS011;29079;41.930;25.558;2022-09-13T09:45:44;3.80;;;3.50;;
7108;SDS011;29079;41.930;25.558;2022-09-13T09:48:17;3.30;;;2.65;;
7108;SDS011;29079;41.930;25.558;2022-09-13T09:50:51;7.82;;;4.53;;
7108;SDS011;29079;41.930;25.558;2022-09-13T09:53:26;3.20;;;2.90;;
7108;SDS011;29079;41.930;25.558;2022-09-13T09:56:04;7.05;;;3.03;;
7108;SDS011;29079;41.930;25.558;2022-09-13T09:58:49;4.38;;;2.90;;
7108;SDS011;29079;41.930;25.558;2022-09-13T10:01:22;5.47;;;2.65;;
7108;SDS011;29079;41.930;25.558;2022-09-13T10:03:59;4.63;;;2.78;;
7108;SDS011;29079;41.930;25.558;2022-09-13T10:06:34;3.15;;;2.90;;
7108;SDS011;29079;41.930;25.558;2022-09-13T10:09:06;5.07;;;3.50;;
7108;SDS011;29079;41.930;25.558;2022-09-13T10:11:46;3.22;;;2.92;;
7108;SDS011;29079;41.930;25.558;2022-09-13T10:14:25;3.25;;;2.72;;
7108;SDS011;29079;41.930;25.558;2022-09-13T10:17:04;3.90;;;2.95;;
7108;SDS011;29079;41.930;25.558;2022-09-13T10:19:53;4.85;;;3.15;;
7108;SDS011;29079;41.930;25.558;2022-09-13T10:22:25;5.30;;;3.60;;
7108;SDS011;29079;41.930;25.558;2022-09-13T10:25:08;3.88;;;3.33;;
7108;SDS011;29079;41.930;25.558;2022-09-13T10:27:43;5.30;;;3.30;;
7108;SDS011;29079;41.930;25.558;2022-09-13T10:30:29;2.83;;;2.60;;
7108;SDS011;29079;41.930;25.558;2022-09-13T10:33:03;3.80;;;2.63;;
7108;SDS011;29079;41.930;25.558;2022-09-13T10:35:34;3.92;;;3.17;;
7108;SDS011;29079;41.930;25.558;2022-09-13T10:38:04;5.20;;;2.58;;
7108;SDS011;29079;41.930;25.558;2022-09-13T10:40:52;3.42;;;2.90;;
7108;SDS011;29079;41.930;25.558;2022-09-13T10:43:23;4.43;;;2.70;;
7108;SDS011;29079;41.930;25.558;2022-09-13T10:45:57;2.88;;;2.42;;
7108;SDS011;29079;41.930;25.558;2022-09-13T10:48:44;4.10;;;3.15;;
7108;SDS011;29079;41.930;25.558;2022-09-13T10:51:32;6.32;;;3.25;;
7108;SDS011;29079;41.930;25.558;2022-09-13T10:54:09;6.40;;;4.38;;
7108;SDS011;29079;41.930;25.558;2022-09-13T10:56:47;5.30;;;3.00;;
7108;SDS011;29079;41.930;25.558;2022-09-13T10:59:20;3.75;;;3.10;;
7108;SDS011;29079;41.930;25.558;2022-09-13T11:02:01;3.97;;;2.75;;
7108;SDS011;29079;41.930;25.558;2022-09-13T11:04:52;5.25;;;3.13;;
7108;SDS011;29079;41.930;25.558;2022-09-13T11:10:46;2.30;;;2.08;;
7108;SDS011;29079;41.930;25.558;2022-09-13T11:13:27;5.45;;;3.00;;
7108;SDS011;29079;41.930;25.558;2022-09-13T11:16:15;3.42;;;2.50;;
7108;SDS011;29079;41.930;25.558;2022-09-13T11:18:58;5.25;;;2.95;;
7108;SDS011;29079;41.930;25.558;2022-09-13T11:21:49;3.30;;;2.40;;
7108;SDS011;29079;41.930;25.558;2022-09-13T11:27:27;4.60;;;3.83;;
7108;SDS011;29079;41.930;25.558;2022-09-13T11:30:04;4.63;;;3.50;;
7108;SDS011;29079;41.930;25.558;2022-09-13T11:32:51;4.25;;;3.22;;
7108;SDS011;29079;41.930;25.558;2022-09-13T11:35:48;6.63;;;3.05;;
7108;SDS011;29079;41.930;25.558;2022-09-13T11:38:35;6.80;;;3.63;;
7108;SDS011;29079;41.930;25.558;2022-09-13T11:41:20;5.43;;;3.25;;
7108;SDS011;29079;41.930;25.558;2022-09-13T11:44:04;2.95;;;2.70;;
7108;SDS011;29079;41.930;25.558;2022-09-13T11:47:02;3.50;;;3.20;;
7108;SDS011;29079;41.930;25.558;2022-09-13T11:52:41;3.88;;;2.42;;
7108;SDS011;29079;41.930;25.558;2022-09-13T11:55:22;7.07;;;5.05;;
7108;SDS011;29079;41.930;25.558;2022-09-13T11:57:56;3.78;;;2.63;;
7108;SDS011;29079;41.930;25.558;2022-09-13T12:00:30;5.53;;;3.10;;
7108;SDS011;29079;41.930;25.558;2022-09-13T12:03:11;3.17;;;2.80;;
7108;SDS011;29079;41.930;25.558;2022-09-13T12:05:46;1.92;;;1.83;;
7108;SDS011;29079;41.930;25.558;2022-09-13T12:08:21;3.60;;;2.25;;
7108;SDS011;29079;41.930;25.558;2022-09-13T12:10:56;4.82;;;2.38;;
7108;SDS011;29079;41.930;25.558;2022-09-13T12:13:31;4.55;;;2.30;;
7108;SDS011;29079;41.930;25.558;2022-09-13T12:16:08;2.88;;;2.10;;
7108;SDS011;29079;41.930;25.558;2022-09-13T12:18:43;4.55;;;2.60;;
7108;SDS011;29079;41.930;25.558;2022-09-13T12:21:17;2.17;;;2.08;;
7108;SDS011;29079;41.930;25.558;2022-09-13T12:23:52;2.75;;;2.55;;
7108;SDS011;29079;41.930;25.558;2022-09-13T12:26:29;3.05;;;2.40;;
7108;SDS011;29079;41.930;25.558;2022-09-13T12:29:05;3.53;;;2.92;;
7108;SDS011;29079;41.930;25.558;2022-09-13T12:31:42;4.97;;;3.17;;
7108;SDS011;29079;41.930;25.558;2022-09-13T12:34:14;2.30;;;2.10;;
7108;SDS011;29079;41.930;25.558;2022-09-13T12:36:51;2.50;;;2.03;;
7108;SDS011;29079;41.930;25.558;2022-09-13T12:39:39;2.80;;;2.28;;
7108;SDS011;29079;41.930;25.558;2022-09-13T12:48:32;4.03;;;2.05;;
7108;SDS011;29079;41.930;25.558;2022-09-13T12:51:19;2.28;;;2.08;;
7108;SDS011;29079;41.930;25.558;2022-09-13T12:54:17;2.40;;;2.22;;
7108;SDS011;29079;41.930;25.558;2022-09-13T12:57:08;3.03;;;2.28;;
7108;SDS011;29079;41.930;25.558;2022-09-13T13:02:55;6.45;;;2.83;;
7108;SDS011;29079;41.930;25.558;2022-09-13T13:05:33;2.63;;;2.40;;
7108;SDS011;29079;41.930;25.558;2022-09-13T13:08:23;6.97;;;2.63;;
7108;SDS011;29079;41.930;25.558;2022-09-13T13:11:00;3.67;;;2.40;;
7108;SDS011;29079;41.930;25.558;2022-09-13T13:13:35;5.45;;;2.58;;
7108;SDS011;29079;41.930;25.558;2022-09-13T13:16:22;4.32;;;3.13;;
7108;SDS011;29079;41.930;25.558;2022-09-13T13:18:56;3.15;;;2.00;;
7108;SDS011;29079;41.930;25.558;2022-09-13T13:21:28;1.98;;;1.88;;
7108;SDS011;29079;41.930;25.558;2022-09-13T13:26:50;2.95;;;2.25;;
7108;SDS011;29079;41.930;25.558;2022-09-13T13:29:22;2.58;;;2.38;;
7108;SDS011;29079;41.930;25.558;2022-09-13T13:32:10;2.60;;;2.33;;
7108;SDS011;29079;41.930;25.558;2022-09-13T13:34:43;2.17;;;2.03;;
7108;SDS011;29079;41.930;25.558;2022-09-13T13:37:31;5.65;;;3.15;;
7108;SDS011;29079;41.930;25.558;2022-09-13T13:40:23;2.63;;;2.42;;
7108;SDS011;29079;41.930;25.558;2022-09-13T13:43:15;3.10;;;2.47;;
7108;SDS011;29079;41.930;25.558;2022-09-13T13:45:59;3.83;;;2.33;;
7108;SDS011;29079;41.930;25.558;2022-09-13T13:49:48;2.40;;;2.20;;
7108;SDS011;29079;41.930;25.558;2022-09-13T13:58:24;3.10;;;2.15;;
7108;SDS011;29079;41.930;25.558;2022-09-13T14:01:00;5.40;;;2.95;;
7108;SDS011;29079;41.930;25.558;2022-09-13T14:03:37;4.10;;;2.60;;
7108;SDS011;29079;41.930;25.558;2022-09-13T14:06:21;3.65;;;3.35;;
7108;SDS011;29079;41.930;25.558;2022-09-13T14:09:02;4.93;;;2.97;;
7108;SDS011;29079;41.930;25.558;2022-09-13T14:11:41;3.40;;;2.45;;
7108;SDS011;29079;41.930;25.558;2022-09-13T14:14:24;4.47;;;3.92;;
7108;SDS011;29079;41.930;25.558;2022-09-13T14:17:24;6.22;;;2.83;;
7108;SDS011;29079;41.930;25.558;2022-09-13T14:20:19;2.65;;;2.40;;
7108;SDS011;29079;41.930;25.558;2022-09-13T14:22:51;3.00;;;2.70;;
7108;SDS011;29079;41.930;25.558;2022-09-13T14:25:40;3.00;;;2.72;;
7108;SDS011;29079;41.930;25.558;2022-09-13T14:28:13;7.05;;;2.97;;
7108;SDS011;29079;41.930;25.558;2022-09-13T14:30:47;5.78;;;2.58;;
7108;SDS011;29079;41.930;25.558;2022-09-13T14:33:23;6.00;;;3.13;;
7108;SDS011;29079;41.930;25.558;2022-09-13T14:36:01;4.40;;;2.45;;
7108;SDS011;29079;41.930;25.558;2022-09-13T14:38:34;3.03;;;2.33;;
7108;SDS011;29079;41.930;25.558;2022-09-13T14:41:12;3.40;;;2.35;;
7108;SDS011;29079;41.930;25.558;2022-09-13T14:43:43;2.00;;;1.90;;
7108;SDS011;29079;41.930;25.558;2022-09-13T14:46:16;8.68;;;2.60;;
7108;SDS011;29079;41.930;25.558;2022-09-13T14:48:51;3.92;;;2.50;;
7108;SDS011;29079;41.930;25.558;2022-09-13T14:51:25;3.08;;;2.35;;
7108;SDS011;29079;41.930;25.558;2022-09-13T14:54:03;5.43;;;2.53;;
7108;SDS011;29079;41.930;25.558;2022-09-13T14:56:40;2.45;;;2.25;;
7108;SDS011;29079;41.930;25.558;2022-09-13T14:59:14;2.60;;;2.40;;
7108;SDS011;29079;41.930;25.558;2022-09-13T15:01:54;2.72;;;2.50;;
7108;SDS011;29079;41.930;25.558;2022-09-13T15:04:30;3.47;;;2.50;;
7108;SDS011;29079;41.930;25.558;2022-09-13T15:07:07;2.53;;;2.20;;
7108;SDS011;29079;41.930;25.558;2022-09-13T15:09:47;2.90;;;2.60;;
7108;SDS011;29079;41.930;25.558;2022-09-13T15:12:20;3.08;;;2.78;;
7108;SDS011;29079;41.930;25.558;2022-09-13T15:17:53;2.55;;;2.20;;
7108;SDS011;29079;41.930;25.558;2022-09-13T15:20:24;6.55;;;3.13;;
7108;SDS011;29079;41.930;25.558;2022-09-13T15:22:55;2.15;;;1.95;;
7108;SDS011;29079;41.930;25.558;2022-09-13T15:25:27;2.65;;;2.28;;
7108;SDS011;29079;41.930;25.558;2022-09-13T15:28:00;4.13;;;2.53;;
7108;SDS011;29079;41.930;25.558;2022-09-13T15:30:31;2.65;;;2.45;;
7108;SDS011;29079;41.930;25.558;2022-09-13T15:33:21;4.20;;;2.75;;
7108;SDS011;29079;41.930;25.558;2022-09-13T15:38:57;4.00;;;2.72;;
7108;SDS011;29079;41.930;25.558;2022-09-13T15:41:31;4.05;;;2.67;;
7108;SDS011;29079;41.930;25.558;2022-09-13T15:46:33;3.47;;;2.92;;
7108;SDS011;29079;41.930;25.558;2022-09-13T15:49:16;4.13;;;2.95;;
7108;SDS011;29079;41.930;25.558;2022-09-13T15:51:48;4.75;;;2.80;;
7108;SDS011;29079;41.930;25.558;2022-09-13T15:54:22;9.18;;;4.68;;
7108;SDS011;29079;41.930;25.558;2022-09-13T15:56:58;5.15;;;2.72;;
7108;SDS011;29079;41.930;25.558;2022-09-13T15:59:27;7.38;;;3.30;;
7108;SDS011;29079;41.930;25.558;2022-09-13T16:01:57;3.67;;;2.40;;
7108;SDS011;29079;41.930;25.558;2022-09-13T16:04:29;8.25;;;3.67;;
7108;SDS011;29079;41.930;25.558;2022-09-13T16:06:59;7.68;;;4.30;;
7108;SDS011;29079;41.930;25.558;2022-09-13T16:09:29;13.65;;;4.57;;
7108;SDS011;29079;41.930;25.558;2022-09-13T16:12:00;5.10;;;3.70;;
7108;SDS011;29079;41.930;25.558;2022-09-13T16:14:31;4.43;;;3.80;;
7108;SDS011;29079;41.930;25.558;2022-09-13T16:17:01;6.72;;;5.00;;